Time;durP1;ratioP1;P1;durP2;ratioP2;P2;SDS_P1;SDS_P2;PMS_P1;PMS_P2;Temp;Humidity;BMP_temperature;BMP_pressure;BME280_temperature;BME280_humidity;BME280_pressure;Samples;Min_cycle;Max_cycle;Signal;HPM_P1;HPM_P2
2022/05/23 00:00:12;;;;;;;;;;;13.10;76.00;;;;;;5089107;28;19924;-72
2022/05/23 00:02:37;;;;;;;;;;;13.10;76.20;;;;;;5089083;28;19912;-73
2022/05/23 00:05:03;;;;;;;;;;;13.00;76.30;;;;;;5088991;28;20313;-73
2022/05/23 00:07:30;;;;;;;;;;;13.00;76.30;;;;;;5070600;28;19923;-73
2022/05/23 00:09:56;;;;;;;;;;;12.90;76.40;;;;;;5053973;28;20402;-73
2022/05/23 00:12:22;;;;;;;;;;;12.80;76.50;;;;;;5088798;28;19991;-73
2022/05/23 00:14:49;;;;;;;;;;;12.80;77.00;;;;;;5070785;28;19922;-73
2022/05/23 00:17:15;;;;;;;;;;;12.70;77.00;;;;;;5070434;28;20432;-74
2022/05/23 00:19:41;;;;;;;;;;;12.70;77.30;;;;;;5070800;28;19948;-73
2022/05/23 00:22:06;;;;;;;;;;;12.70;77.60;;;;;;5088565;28;19911;-73
2022/05/23 00:24:32;;;;;;;;;;;12.70;77.60;;;;;;5053678;28;19920;-73
2022/05/23 00:26:58;;;;;;;;;;;12.70;77.60;;;;;;5088678;28;19916;-73
2022/05/23 00:29:23;;;;;;;;;;;12.60;77.50;;;;;;5088554;28;19996;-73
2022/05/23 00:37:18;;;;;;;;;;;12.60;78.10;;;;;;5088707;28;19923;-72
2022/05/23 00:39:44;;;;;;;;;;;12.60;78.30;;;;;;5070483;28;19916;-73
2022/05/23 00:44:56;;;;;;;;;;;12.60;79.20;;;;;;5088411;28;19915;-74
2022/05/23 00:47:24;;;;;;;;;;;12.60;79.60;;;;;;5088149;28;20277;-74
2022/05/23 00:49:50;;;;;;;;;;;12.70;80.30;;;;;;5088052;28;19974;-73
2022/05/23 00:52:19;;;;;;;;;;;12.80;79.70;;;;;;5070127;28;19916;-73
2022/05/23 00:54:47;;;;;;;;;;;12.90;80.20;;;;;;5088086;28;19912;-73
2022/05/23 00:57:15;;;;;;;;;;;12.90;80.40;;;;;;5087968;28;19993;-74
2022/05/23 00:59:41;;;;;;;;;;;12.90;80.50;;;;;;5088670;28;19992;-72
2022/05/23 01:02:09;;;;;;;;;;;13.00;80.60;;;;;;5070068;28;20383;-73
2022/05/23 01:04:34;;;;;;;;;;;13.00;80.80;;;;;;5088323;28;19908;-73
2022/05/23 01:07:00;;;;;;;;;;;12.90;80.80;;;;;;5069969;28;19935;-73
2022/05/23 01:09:27;;;;;;;;;;;13.00;81.00;;;;;;5088082;28;19924;-73
2022/05/23 01:11:54;;;;;;;;;;;12.90;81.30;;;;;;5088331;28;19913;-73
2022/05/23 01:14:20;;;;;;;;;;;12.80;81.20;;;;;;5087941;28;19908;-74
2022/05/23 01:16:46;;;;;;;;;;;12.80;81.70;;;;;;5087820;28;20366;-74
2022/05/23 01:19:12;;;;;;;;;;;12.70;81.50;;;;;;5087931;28;19945;-73
2022/05/23 01:21:56;;;;;;;;;;;12.60;82.20;;;;;;5087988;28;19912;-73
2022/05/23 01:24:32;;;;;;;;;;;12.70;82.50;;;;;;5087980;28;19908;-74
2022/05/23 01:26:59;;;;;;;;;;;12.70;82.40;;;;;;5087901;28;19943;-73
2022/05/23 01:29:24;;;;;;;;;;;12.80;82.50;;;;;;5087806;28;19908;-73
2022/05/23 01:31:50;;;;;;;;;;;12.90;82.60;;;;;;5069804;28;19962;-74
2022/05/23 01:34:15;;;;;;;;;;;12.90;82.20;;;;;;5069622;28;20289;-74
2022/05/23 01:36:41;;;;;;;;;;;13.00;82.00;;;;;;5087746;28;20385;-73
2022/05/23 01:39:07;;;;;;;;;;;13.00;82.20;;;;;;5069482;28;19912;-73
2022/05/23 01:41:32;;;;;;;;;;;13.00;81.90;;;;;;5087713;28;19916;-73
2022/05/23 01:43:58;;;;;;;;;;;13.00;82.60;;;;;;5069483;28;19917;-74
2022/05/23 01:46:23;;;;;;;;;;;12.90;82.80;;;;;;5087541;28;19908;-73
2022/05/23 01:48:49;;;;;;;;;;;12.90;82.60;;;;;;5087518;28;20338;-73
2022/05/23 01:51:14;;;;;;;;;;;13.00;82.60;;;;;;5069677;28;20122;-73
2022/05/23 01:53:41;;;;;;;;;;;12.90;82.60;;;;;;5087548;28;19912;-72
2022/05/23 01:56:07;;;;;;;;;;;12.90;82.60;;;;;;5087682;28;19912;-74
2022/05/23 02:01:17;;;;;;;;;;;12.90;82.70;;;;;;5087961;28;19919;-74
2022/05/23 02:03:44;;;;;;;;;;;12.90;82.80;;;;;;5087532;28;19908;-73
2022/05/23 02:06:10;;;;;;;;;;;12.90;82.90;;;;;;5087649;28;19909;-73
2022/05/23 02:08:36;;;;;;;;;;;12.90;82.90;;;;;;5087950;28;19908;-72
2022/05/23 02:11:03;;;;;;;;;;;13.00;82.90;;;;;;5091532;28;19908;-74
2022/05/23 02:13:30;;;;;;;;;;;13.00;83.00;;;;;;5091144;28;20319;-72
2022/05/23 02:15:56;;;;;;;;;;;13.00;82.90;;;;;;5090997;28;19946;-73
2022/05/23 02:18:21;;;;;;;;;;;13.00;82.70;;;;;;5091035;28;20324;-73
2022/05/23 02:20:47;;;;;;;;;;;13.00;82.70;;;;;;5091084;28;19924;-73
2022/05/23 02:23:12;;;;;;;;;;;12.90;82.80;;;;;;5072616;28;19916;-73
2022/05/23 02:25:38;;;;;;;;;;;13.00;82.80;;;;;;5090916;28;19924;-73
2022/05/23 02:28:03;;;;;;;;;;;13.10;82.80;;;;;;5073125;28;20377;-73
2022/05/23 02:30:29;;;;;;;;;;;13.10;83.00;;;;;;5090794;28;19974;-73
2022/05/23 02:32:54;;;;;;;;;;;13.20;83.00;;;;;;5090702;28;20044;-73
2022/05/23 02:35:20;;;;;;;;;;;13.20;82.90;;;;;;5072564;28;19917;-74
2022/05/23 02:37:46;;;;;;;;;;;13.30;83.20;;;;;;5090509;28;19997;-73
2022/05/23 02:40:12;;;;;;;;;;;13.30;83.20;;;;;;5090594;28;19915;-72
2022/05/23 02:42:37;;;;;;;;;;;13.30;83.10;;;;;;5090484;28;19958;-72
2022/05/23 02:45:06;;;;;;;;;;;13.30;83.10;;;;;;5090371;28;20362;-73
2022/05/23 02:47:32;;;;;;;;;;;13.30;83.10;;;;;;5072201;28;19914;-74
2022/05/23 02:49:58;;;;;;;;;;;13.40;83.20;;;;;;5072342;28;19920;-73
2022/05/23 02:52:24;;;;;;;;;;;13.40;83.50;;;;;;5090206;28;20452;-72
2022/05/23 02:54:50;;;;;;;;;;;13.30;83.20;;;;;;5090281;28;19908;-74
2022/05/23 02:57:15;;;;;;;;;;;13.30;83.20;;;;;;5090321;28;19939;-73
2022/05/23 02:59:41;;;;;;;;;;;13.30;83.50;;;;;;5090310;28;19920;-74
2022/05/23 03:04:50;;;;;;;;;;;13.30;83.90;;;;;;5090126;28;20011;-73
2022/05/23 03:07:16;;;;;;;;;;;13.30;84.20;;;;;;5072136;28;19955;-73
2022/05/23 03:09:43;;;;;;;;;;;13.20;84.20;;;;;;5071919;28;19912;-73
2022/05/23 03:12:09;;;;;;;;;;;13.20;84.40;;;;;;5071732;28;19919;-73
2022/05/23 03:14:34;;;;;;;;;;;13.20;84.50;;;;;;5071765;28;19912;-74
2022/05/23 03:17:01;;;;;;;;;;;13.20;84.70;;;;;;5089829;28;19913;-75
2022/05/23 03:19:26;;;;;;;;;;;13.20;84.80;;;;;;5089525;28;19919;-73
2022/05/23 03:27:20;;;;;;;;;;;13.00;85.40;;;;;;5089789;28;19989;-73
2022/05/23 03:29:46;;;;;;;;;;;13.00;85.60;;;;;;5071610;28;19912;-73
2022/05/23 03:32:13;;;;;;;;;;;13.00;85.90;;;;;;5089641;28;19919;-72
2022/05/23 03:34:38;;;;;;;;;;;13.00;86.10;;;;;;5089590;28;19912;-73
2022/05/23 03:37:05;;;;;;;;;;;13.00;86.10;;;;;;5071191;28;19926;-73
2022/05/23 03:39:31;;;;;;;;;;;12.90;86.10;;;;;;5071333;28;19995;-74
2022/05/23 03:41:56;;;;;;;;;;;12.90;86.50;;;;;;5089397;28;20513;-73
2022/05/23 03:44:22;;;;;;;;;;;12.90;86.70;;;;;;5089464;28;19912;-74
2022/05/23 03:46:47;;;;;;;;;;;12.90;86.60;;;;;;5089684;28;19998;-74
2022/05/23 03:49:13;;;;;;;;;;;12.90;86.60;;;;;;5070966;28;20401;-73
2022/05/23 03:51:39;;;;;;;;;;;13.00;86.80;;;;;;5071323;28;19947;-73
2022/05/23 03:54:04;;;;;;;;;;;12.90;86.90;;;;;;5070950;28;19918;-73
2022/05/23 03:56:30;;;;;;;;;;;12.90;86.90;;;;;;5071012;28;19908;-73
2022/05/23 03:58:56;;;;;;;;;;;12.90;86.80;;;;;;5089041;28;19942;-73
2022/05/23 04:01:23;;;;;;;;;;;13.00;86.70;;;;;;5089061;28;19930;-74
2022/05/23 04:03:48;;;;;;;;;;;13.00;86.50;;;;;;5088663;28;19912;-73
2022/05/23 04:06:14;;;;;;;;;;;13.00;86.50;;;;;;5088924;28;20015;-74
2022/05/23 04:08:39;;;;;;;;;;;13.00;86.40;;;;;;5070738;28;19919;-74
2022/05/23 04:11:06;;;;;;;;;;;13.10;86.50;;;;;;5071058;28;19912;-73
2022/05/23 04:13:32;;;;;;;;;;;13.10;86.50;;;;;;5088686;28;19923;-73
2022/05/23 04:15:57;;;;;;;;;;;13.10;87.00;;;;;;5088733;28;19965;-73
2022/05/23 04:18:23;;;;;;;;;;;13.10;86.40;;;;;;5088654;28;19924;-74
2022/05/23 04:20:49;;;;;;;;;;;13.10;86.50;;;;;;5088617;28;20409;-73
2022/05/23 04:23:14;;;;;;;;;;;13.10;86.40;;;;;;5088523;28;20390;-74
2022/05/23 04:25:44;;;;;;;;;;;13.10;86.30;;;;;;5088563;28;20018;-73
2022/05/23 04:28:11;;;;;;;;;;;13.10;86.40;;;;;;5070255;28;20335;-73
2022/05/23 04:30:37;;;;;;;;;;;13.20;86.40;;;;;;5088616;28;19926;-73
2022/05/23 04:35:48;;;;;;;;;;;13.20;86.40;;;;;;5088800;28;19943;-74
2022/05/23 04:38:14;;;;;;;;;;;13.20;86.40;;;;;;5088327;28;19950;-73
2022/05/23 04:40:40;;;;;;;;;;;13.30;86.30;;;;;;5088284;28;20414;-75
2022/05/23 04:43:05;;;;;;;;;;;13.30;86.20;;;;;;5088254;28;19998;-73
2022/05/23 04:45:31;;;;;;;;;;;13.30;86.10;;;;;;5088277;28;19915;-74
2022/05/23 04:50:41;;;;;;;;;;;13.40;85.90;;;;;;5088503;28;20082;-74
2022/05/23 04:53:06;;;;;;;;;;;13.40;85.80;;;;;;5088075;28;20035;-74
2022/05/23 04:55:33;;;;;;;;;;;13.40;85.70;;;;;;5088092;28;19912;-73
2022/05/23 04:57:59;;;;;;;;;;;13.50;85.60;;;;;;5088083;28;19912;-74
2022/05/23 05:00:25;;;;;;;;;;;13.40;85.60;;;;;;5088147;28;19912;-73
2022/05/23 05:02:51;;;;;;;;;;;13.40;85.50;;;;;;5087858;28;19908;-73
2022/05/23 05:05:18;;;;;;;;;;;13.40;85.50;;;;;;5088032;28;19947;-73
2022/05/23 05:07:44;;;;;;;;;;;13.50;85.50;;;;;;5069797;28;20370;-73
2022/05/23 05:10:10;;;;;;;;;;;13.50;85.40;;;;;;5088054;28;19922;-73
2022/05/23 05:12:35;;;;;;;;;;;13.50;85.40;;;;;;5069738;28;19914;-74
2022/05/23 05:15:01;;;;;;;;;;;13.50;85.40;;;;;;5087693;28;19916;-74
2022/05/23 05:17:27;;;;;;;;;;;13.50;85.30;;;;;;5087979;28;19912;-74
2022/05/23 05:19:53;;;;;;;;;;;13.50;85.30;;;;;;5069877;28;19912;-73
2022/05/23 05:22:19;;;;;;;;;;;13.50;85.30;;;;;;5088259;28;19923;-73
2022/05/23 05:24:44;;;;;;;;;;;13.50;85.30;;;;;;5088052;28;19913;-74
2022/05/23 05:27:10;;;;;;;;;;;13.50;85.20;;;;;;5087929;28;19951;-74
2022/05/23 05:29:36;;;;;;;;;;;13.50;85.20;;;;;;5087754;28;20278;-73
2022/05/23 05:32:06;;;;;;;;;;;13.60;85.20;;;;;;5069570;28;19984;-73
2022/05/23 05:34:32;;;;;;;;;;;13.60;85.10;;;;;;5087907;28;19908;-74
2022/05/23 05:37:02;;;;;;;;;;;13.60;85.00;;;;;;5087629;28;19912;-74
2022/05/23 05:39:31;;;;;;;;;;;13.60;85.00;;;;;;5087796;28;19950;-73
2022/05/23 05:42:09;;;;;;;;;;;13.70;85.00;;;;;;5087784;28;19908;-73
2022/05/23 05:44:36;;;;;;;;;;;13.70;85.00;;;;;;5091220;28;20270;-73
2022/05/23 05:47:05;;;;;;;;;;;13.80;85.00;;;;;;5091235;28;19908;-72
2022/05/23 05:49:32;;;;;;;;;;;13.90;84.90;;;;;;5091202;28;19945;-73
2022/05/23 05:52:01;;;;;;;;;;;13.90;84.80;;;;;;5091333;28;19984;-73
2022/05/23 05:54:28;;;;;;;;;;;14.00;84.80;;;;;;5091335;28;19908;-73
2022/05/23 05:56:55;;;;;;;;;;;14.10;84.80;;;;;;5072738;28;19912;-73
2022/05/23 05:59:21;;;;;;;;;;;14.20;84.70;;;;;;5072918;28;19912;-73
2022/05/23 06:01:46;;;;;;;;;;;14.20;84.60;;;;;;5091035;28;19908;-73
2022/05/23 06:04:12;;;;;;;;;;;14.30;84.50;;;;;;5091175;28;19916;-75
2022/05/23 06:12:06;;;;;;;;;;;14.40;84.30;;;;;;5091262;28;19927;-74
2022/05/23 06:14:31;;;;;;;;;;;14.40;84.20;;;;;;5090984;28;19908;-74
2022/05/23 06:16:57;;;;;;;;;;;14.50;84.20;;;;;;5090717;28;19912;-74
2022/05/23 06:19:23;;;;;;;;;;;14.50;84.20;;;;;;5090716;28;19919;-73
2022/05/23 06:21:48;;;;;;;;;;;14.60;84.20;;;;;;5090761;28;19930;-73
2022/05/23 06:24:14;;;;;;;;;;;14.70;84.20;;;;;;5090773;28;19919;-73
2022/05/23 06:26:40;;;;;;;;;;;14.90;84.20;;;;;;5090594;28;19931;-73
2022/05/23 06:29:06;;;;;;;;;;;15.00;84.00;;;;;;5090327;28;19955;-74
2022/05/23 06:31:31;;;;;;;;;;;15.20;83.80;;;;;;5072077;28;19912;-74
2022/05/23 06:33:57;;;;;;;;;;;15.30;83.70;;;;;;5090329;28;19931;-74
2022/05/23 06:36:23;;;;;;;;;;;15.40;83.60;;;;;;5090479;28;19920;-74
2022/05/23 06:38:49;;;;;;;;;;;15.40;83.40;;;;;;5089786;28;19920;-75
2022/05/23 06:41:15;;;;;;;;;;;15.40;83.10;;;;;;5089928;28;20200;-74
2022/05/23 06:43:41;;;;;;;;;;;15.40;83.10;;;;;;5090307;28;19912;-73
2022/05/23 06:46:07;;;;;;;;;;;15.40;83.10;;;;;;5090148;28;19950;-74
2022/05/23 06:48:34;;;;;;;;;;;15.50;83.20;;;;;;5071629;28;19924;-74
2022/05/23 06:51:00;;;;;;;;;;;15.70;83.40;;;;;;5071413;28;19919;-74
2022/05/23 06:53:27;;;;;;;;;;;15.90;83.30;;;;;;5089944;28;19912;-74
2022/05/23 06:55:53;;;;;;;;;;;16.20;83.30;;;;;;5089244;28;19912;-73
2022/05/23 06:58:21;;;;;;;;;;;16.60;83.30;;;;;;5089380;28;20255;-73
2022/05/23 07:00:50;;;;;;;;;;;16.90;82.50;;;;;;5089572;28;20247;-75
2022/05/23 07:03:16;;;;;;;;;;;17.20;82.00;;;;;;5089556;28;20274;-73
2022/05/23 07:13:55;;;;;;;;;;;19.90;80.20;;;;;;5089857;28;19961;-73
2022/05/23 07:16:21;;;;;;;;;;;20.40;78.60;;;;;;5070991;28;20350;-73
2022/05/23 07:18:47;;;;;;;;;;;20.20;77.70;;;;;;5089455;28;19919;-74
2022/05/23 07:21:13;;;;;;;;;;;20.00;77.20;;;;;;5089483;28;19919;-73
2022/05/23 07:23:38;;;;;;;;;;;19.60;76.30;;;;;;5089325;28;19908;-73
2022/05/23 07:26:09;;;;;;;;;;;19.10;77.30;;;;;;5089306;28;19917;-73
2022/05/23 07:28:35;;;;;;;;;;;18.80;77.80;;;;;;5071071;28;19915;-74
2022/05/23 07:31:02;;;;;;;;;;;19.40;79.50;;;;;;5088859;28;20203;-74
2022/05/23 07:33:28;;;;;;;;;;;19.90;78.30;;;;;;5070396;28;20278;-73
2022/05/23 07:35:54;;;;;;;;;;;19.80;77.30;;;;;;5088821;28;20419;-73
2022/05/23 07:38:20;;;;;;;;;;;19.40;76.40;;;;;;5089054;28;20172;-74
2022/05/23 07:40:48;;;;;;;;;;;18.80;76.00;;;;;;5088424;28;19974;-74
2022/05/23 07:43:16;;;;;;;;;;;18.20;76.70;;;;;;5088241;28;19908;-75
2022/05/23 07:45:41;;;;;;;;;;;17.90;77.50;;;;;;5088448;28;19935;-75
2022/05/23 07:48:07;;;;;;;;;;;17.70;78.00;;;;;;5053136;28;19928;-73
2022/05/23 07:50:33;;;;;;;;;;;17.80;79.10;;;;;;5088305;28;20250;-75
2022/05/23 08:01:11;;;;;;;;;;;21.10;74.70;;;;;;5088455;28;19916;-74
2022/05/23 08:03:36;;;;;;;;;;;21.20;75.70;;;;;;5088099;28;20125;-76
2022/05/23 08:06:02;;;;;;;;;;;22.30;77.10;;;;;;5087506;28;19944;-75
2022/05/23 08:08:28;;;;;;;;;;;23.70;77.20;;;;;;5087919;28;20416;-75
2022/05/23 08:10:53;;;;;;;;;;;25.30;76.90;;;;;;5093813;28;19998;-75
2022/05/23 08:13:19;;;;;;;;;;;26.90;74.80;;;;;;5099466;28;19912;-73
2022/05/23 08:15:45;;;;;;;;;;;27.90;74.10;;;;;;5098841;28;19909;-70
2022/05/23 08:18:11;;;;;;;;;;;28.50;73.90;;;;;;5098243;28;19916;-71
2022/05/23 08:20:38;;;;;;;;;;;28.60;73.50;;;;;;5099497;28;20009;-71
2022/05/23 08:23:03;;;;;;;;;;;29.30;73.00;;;;;;5098047;28;19916;-71
2022/05/23 08:25:29;;;;;;;;;;;29.60;72.70;;;;;;5097987;28;20150;-71
2022/05/23 08:27:55;;;;;;;;;;;30.00;72.80;;;;;;5098903;28;20358;-71
2022/05/23 08:30:21;;;;;;;;;;;30.30;72.80;;;;;;5097204;28;19919;-72
2022/05/23 08:32:46;;;;;;;;;;;30.80;72.70;;;;;;5099855;28;19962;-74
2022/05/23 08:35:12;;;;;;;;;;;31.00;69.70;;;;;;5096570;28;20321;-73
2022/05/23 08:37:38;;;;;;;;;;;29.90;68.20;;;;;;5098280;28;20018;-71
2022/05/23 08:40:05;;;;;;;;;;;28.50;68.00;;;;;;5079196;28;19998;-73
2022/05/23 08:42:45;;;;;;;;;;;27.10;68.10;;;;;;5096677;28;19973;-72
2022/05/23 08:45:15;;;;;;;;;;;25.70;68.50;;;;;;5098368;28;19942;-73
2022/05/23 08:47:53;;;;;;;;;;;24.40;67.60;;;;;;5096768;28;20118;-72
2022/05/23 08:50:33;;;;;;;;;;;23.30;68.60;;;;;;5098618;28;20331;-72
2022/05/23 08:53:22;;;;;;;;;;;22.30;69.60;;;;;;5096446;28;20353;-75
2022/05/23 08:55:50;;;;;;;;;;;21.60;70.20;;;;;;5088247;28;19952;-71
2022/05/23 08:58:18;;;;;;;;;;;20.90;71.10;;;;;;5097122;28;19912;-74
2022/05/23 09:00:45;;;;;;;;;;;20.40;71.80;;;;;;5098503;28;20371;-72
2022/05/23 09:03:14;;;;;;;;;;;20.20;72.40;;;;;;5098328;28;20346;-73
2022/05/23 09:05:42;;;;;;;;;;;20.20;72.50;;;;;;5096203;28;20247;-73
2022/05/23 09:08:09;;;;;;;;;;;20.20;72.00;;;;;;5078290;28;19958;-74
2022/05/23 09:10:48;;;;;;;;;;;20.60;71.70;;;;;;5098071;28;19908;-73
2022/05/23 09:13:15;;;;;;;;;;;21.20;71.20;;;;;;5098216;28;19915;-74
2022/05/23 09:15:41;;;;;;;;;;;22.10;72.40;;;;;;5096126;28;19951;-73
2022/05/23 09:18:10;;;;;;;;;;;23.40;71.40;;;;;;5098208;28;19955;-73
2022/05/23 09:20:44;;;;;;;;;;;24.90;70.00;;;;;;5103716;28;20433;-75
2022/05/23 09:23:12;;;;;;;;;;;26.10;66.90;;;;;;5098909;28;19952;-75
2022/05/23 09:25:38;;;;;;;;;;;26.20;66.10;;;;;;5093455;28;20007;-75
2022/05/23 09:28:13;;;;;;;;;;;25.90;65.10;;;;;;5102751;28;19908;-75
2022/05/23 09:30:40;;;;;;;;;;;25.30;63.80;;;;;;5085096;28;19919;-74
2022/05/23 09:33:11;;;;;;;;;;;24.60;64.50;;;;;;5100720;28;19922;-73
2022/05/23 09:35:47;;;;;;;;;;;24.00;64.30;;;;;;5082185;28;20360;-74
2022/05/23 09:38:25;;;;;;;;;;;23.70;64.10;;;;;;5103025;28;19939;-76
2022/05/23 09:40:51;;;;;;;;;;;24.30;65.90;;;;;;5100602;28;19918;-74
2022/05/23 09:49:21;;;;;;;;;;;23.90;64.00;;;;;;5100272;28;19927;-75
2022/05/23 09:51:54;;;;;;;;;;;23.80;64.80;;;;;;5080594;28;20274;-74
2022/05/23 09:54:43;;;;;;;;;;;23.70;63.90;;;;;;5102724;28;20362;-73
2022/05/23 09:57:15;;;;;;;;;;;24.50;65.30;;;;;;5078528;28;19912;-73
2022/05/23 09:59:40;;;;;;;;;;;25.80;65.20;;;;;;5102339;28;19916;-74
2022/05/23 10:02:15;;;;;;;;;;;26.70;64.50;;;;;;5094019;28;19950;-75
2022/05/23 10:04:43;;;;;;;;;;;27.40;62.60;;;;;;5091552;28;19912;-74
2022/05/23 10:07:22;;;;;;;;;;;27.50;62.00;;;;;;5090800;28;20460;-73
2022/05/23 10:09:55;;;;;;;;;;;26.80;59.30;;;;;;5091142;28;19976;-73
2022/05/23 10:12:22;;;;;;;;;;;26.50;60.40;;;;;;5090986;28;19916;-74
2022/05/23 10:14:49;;;;;;;;;;;26.40;59.50;;;;;;5091217;28;19912;-72
2022/05/23 10:17:25;;;;;;;;;;;25.90;58.90;;;;;;5091380;28;20254;-73
2022/05/23 10:19:51;;;;;;;;;;;25.50;60.00;;;;;;5091286;28;19915;-72
2022/05/23 10:22:22;;;;;;;;;;;26.20;60.70;;;;;;5072812;28;19925;-73
2022/05/23 10:24:53;;;;;;;;;;;27.30;60.30;;;;;;5091394;28;19935;-74
2022/05/23 10:27:29;;;;;;;;;;;28.30;59.60;;;;;;5091137;28;20003;-73
2022/05/23 10:29:59;;;;;;;;;;;28.10;57.00;;;;;;5089824;28;19961;-73
2022/05/23 10:32:31;;;;;;;;;;;27.20;57.60;;;;;;5090956;28;19912;-74
2022/05/23 10:35:05;;;;;;;;;;;26.30;57.90;;;;;;5090990;28;20006;-72
2022/05/23 10:37:32;;;;;;;;;;;25.40;58.20;;;;;;5072432;28;19912;-74
2022/05/23 10:42:48;;;;;;;;;;;24.00;59.20;;;;;;5090520;28;20429;-72
2022/05/23 10:45:20;;;;;;;;;;;23.60;59.80;;;;;;5090065;28;19953;-71
2022/05/23 10:48:04;;;;;;;;;;;23.40;59.90;;;;;;5071598;28;19927;-72
2022/05/23 10:50:29;;;;;;;;;;;23.30;60.60;;;;;;5089916;28;20417;-73
2022/05/23 10:52:58;;;;;;;;;;;23.70;61.00;;;;;;5071888;28;19995;-73
2022/05/23 10:55:36;;;;;;;;;;;24.80;61.50;;;;;;5090030;28;19913;-74
2022/05/23 10:58:17;;;;;;;;;;;26.10;61.00;;;;;;5090247;28;19912;-74
2022/05/23 11:00:50;;;;;;;;;;;27.40;59.50;;;;;;5089905;28;19990;-74
2022/05/23 11:03:15;;;;;;;;;;;28.40;58.90;;;;;;5090124;28;19908;-74
2022/05/23 11:05:59;;;;;;;;;;;29.10;57.60;;;;;;5092777;28;19923;-75
2022/05/23 11:08:25;;;;;;;;;;;29.60;56.80;;;;;;5101061;28;20367;-74
2022/05/23 11:10:56;;;;;;;;;;;30.10;55.80;;;;;;5105018;28;19919;-73
2022/05/23 11:13:37;;;;;;;;;;;30.50;56.40;;;;;;5105128;28;20346;-73
2022/05/23 11:16:03;;;;;;;;;;;31.10;57.20;;;;;;5099514;28;19947;-72
2022/05/23 11:18:34;;;;;;;;;;;32.00;58.30;;;;;;5099935;28;20001;-74
2022/05/23 11:21:05;;;;;;;;;;;32.00;57.90;;;;;;5093263;28;19994;-73
2022/05/23 11:23:42;;;;;;;;;;;32.30;56.50;;;;;;5074100;28;19912;-73
2022/05/23 11:26:20;;;;;;;;;;;31.90;56.40;;;;;;5102306;28;19916;-74
2022/05/23 11:34:30;;;;;;;;;;;29.50;53.90;;;;;;5090267;28;19919;-72
2022/05/23 11:37:08;;;;;;;;;;;28.60;53.70;;;;;;5089899;28;20553;-73
2022/05/23 11:39:44;;;;;;;;;;;27.60;53.60;;;;;;5090021;28;19912;-73
2022/05/23 11:42:12;;;;;;;;;;;26.70;53.20;;;;;;5089644;28;19928;-73
2022/05/23 11:44:44;;;;;;;;;;;25.70;53.10;;;;;;5089538;28;19916;-71
2022/05/23 11:47:16;;;;;;;;;;;24.90;53.00;;;;;;5071797;28;20379;-73
2022/05/23 11:49:43;;;;;;;;;;;24.30;54.00;;;;;;5089239;28;19931;-72
2022/05/23 11:52:26;;;;;;;;;;;24.20;54.40;;;;;;5089282;28;19912;-72
2022/05/23 11:54:52;;;;;;;;;;;24.20;54.60;;;;;;5089480;28;20006;-72
2022/05/23 11:57:38;;;;;;;;;;;24.10;54.80;;;;;;5089203;28;19985;-73
2022/05/23 12:00:03;;;;;;;;;;;24.20;54.10;;;;;;5087786;28;20290;-73
2022/05/23 12:02:29;;;;;;;;;;;24.60;54.90;;;;;;5088065;28;19913;-72
2022/05/23 12:04:55;;;;;;;;;;;25.40;55.50;;;;;;5089329;28;19915;-73
2022/05/23 12:07:44;;;;;;;;;;;26.10;55.60;;;;;;5088490;28;19915;-71
2022/05/23 12:10:22;;;;;;;;;;;26.50;54.50;;;;;;5088873;28;19916;-73
2022/05/23 12:12:49;;;;;;;;;;;26.80;54.70;;;;;;5089277;28;20393;-73
2022/05/23 12:15:33;;;;;;;;;;;27.60;54.50;;;;;;5089187;28;19908;-73
2022/05/23 12:18:01;;;;;;;;;;;28.30;53.10;;;;;;5091863;28;19961;-73
2022/05/23 12:20:27;;;;;;;;;;;28.40;52.80;;;;;;5079357;28;19908;-72
2022/05/23 12:23:10;;;;;;;;;;;27.70;52.10;;;;;;5088009;28;19920;-73
2022/05/23 12:25:36;;;;;;;;;;;26.40;52.40;;;;;;5096654;28;19954;-74
2022/05/23 12:28:16;;;;;;;;;;;25.00;53.00;;;;;;5079154;28;19944;-74
2022/05/23 12:30:42;;;;;;;;;;;23.60;53.50;;;;;;5102166;28;20304;-73
2022/05/23 12:33:10;;;;;;;;;;;22.40;54.50;;;;;;5105667;28;19947;-73
2022/05/23 12:35:44;;;;;;;;;;;21.60;55.30;;;;;;5108980;28;19908;-73
2022/05/23 12:38:13;;;;;;;;;;;21.30;57.40;;;;;;5090468;28;19915;-74
2022/05/23 12:40:48;;;;;;;;;;;21.90;58.80;;;;;;5090529;28;19969;-73
2022/05/23 12:43:16;;;;;;;;;;;22.50;58.90;;;;;;5090877;28;20312;-72
2022/05/23 12:45:52;;;;;;;;;;;23.20;59.50;;;;;;5109229;28;19925;-73
2022/05/23 12:48:36;;;;;;;;;;;24.30;60.00;;;;;;5108931;28;19928;-72
2022/05/23 12:51:11;;;;;;;;;;;25.20;59.70;;;;;;5090443;28;19934;-72
2022/05/23 12:53:40;;;;;;;;;;;25.80;59.40;;;;;;5108225;28;19914;-73
2022/05/23 12:56:08;;;;;;;;;;;26.20;59.30;;;;;;5108521;28;19934;-73
2022/05/23 12:58:37;;;;;;;;;;;26.80;59.00;;;;;;5090710;28;20010;-74
2022/05/23 13:01:04;;;;;;;;;;;27.30;58.90;;;;;;5108579;28;19911;-73
2022/05/23 13:03:36;;;;;;;;;;;27.50;59.10;;;;;;5108438;28;20365;-71
2022/05/23 13:06:08;;;;;;;;;;;27.70;58.80;;;;;;5108754;28;19908;-72
2022/05/23 13:08:36;;;;;;;;;;;27.90;59.10;;;;;;5108459;28;19908;-74
2022/05/23 13:11:04;;;;;;;;;;;27.90;58.90;;;;;;5108738;28;19912;-73
2022/05/23 13:13:33;;;;;;;;;;;27.60;58.70;;;;;;5108276;28;19930;-73
2022/05/23 13:16:15;;;;;;;;;;;27.20;58.90;;;;;;5108283;28;19908;-72
2022/05/23 13:24:10;;;;;;;;;;;24.50;58.50;;;;;;5093666;28;19919;-72
2022/05/23 13:26:36;;;;;;;;;;;23.70;58.90;;;;;;5108494;28;19915;-71
2022/05/23 13:29:02;;;;;;;;;;;23.40;58.90;;;;;;5072620;28;20289;-74
2022/05/23 13:31:34;;;;;;;;;;;23.30;58.90;;;;;;5096203;28;19947;-73
2022/05/23 13:34:10;;;;;;;;;;;23.00;58.90;;;;;;5105187;28;19981;-72
2022/05/23 13:36:43;;;;;;;;;;;22.80;58.90;;;;;;5095789;28;19911;-72
2022/05/23 13:39:10;;;;;;;;;;;22.70;58.60;;;;;;5083100;28;20235;-72
2022/05/23 13:41:36;;;;;;;;;;;22.50;58.40;;;;;;5108288;28;19984;-72
2022/05/23 13:44:02;;;;;;;;;;;22.30;58.30;;;;;;5107874;28;19908;-72
2022/05/23 13:46:37;;;;;;;;;;;22.10;57.90;;;;;;5100734;28;20010;-72
2022/05/23 13:49:07;;;;;;;;;;;22.00;58.10;;;;;;5097174;28;19932;-73
2022/05/23 13:51:38;;;;;;;;;;;21.90;57.60;;;;;;5096600;28;19973;-73
2022/05/23 13:54:23;;;;;;;;;;;21.70;57.30;;;;;;5079756;28;20013;-72
2022/05/23 13:56:52;;;;;;;;;;;21.60;57.60;;;;;;5101464;28;19984;-72
2022/05/23 13:59:33;;;;;;;;;;;21.50;57.70;;;;;;5106076;28;19916;-72
2022/05/23 14:02:02;;;;;;;;;;;21.60;57.80;;;;;;5107567;28;19914;-73
2022/05/23 14:04:30;;;;;;;;;;;21.60;57.90;;;;;;5091761;28;19912;-74
2022/05/23 14:07:08;;;;;;;;;;;21.60;58.10;;;;;;5110649;28;19935;-75
2022/05/23 14:09:34;;;;;;;;;;;21.50;57.90;;;;;;5110639;28;20205;-73
2022/05/23 14:12:04;;;;;;;;;;;21.50;58.10;;;;;;5110452;28;19972;-74
2022/05/23 14:14:36;;;;;;;;;;;21.50;58.10;;;;;;5110289;28;20315;-74
2022/05/23 14:17:22;;;;;;;;;;;21.70;58.30;;;;;;5110180;28;19908;-74
2022/05/23 14:20:08;;;;;;;;;;;22.00;58.50;;;;;;5109521;28;20377;-73
2022/05/23 14:22:33;;;;;;;;;;;22.20;58.10;;;;;;5111019;28;20385;-72
2022/05/23 14:25:00;;;;;;;;;;;22.30;58.00;;;;;;5111490;28;19912;-73
2022/05/23 14:27:27;;;;;;;;;;;22.20;57.90;;;;;;5093108;28;19907;-72
2022/05/23 14:30:11;;;;;;;;;;;22.00;58.20;;;;;;5111530;28;19995;-71
2022/05/23 14:32:37;;;;;;;;;;;21.80;58.50;;;;;;5111328;28;19920;-74
2022/05/23 14:35:10;;;;;;;;;;;21.30;58.70;;;;;;5111450;28;20349;-72
2022/05/23 14:37:36;;;;;;;;;;;21.00;59.30;;;;;;5110914;28;19912;-74
2022/05/23 14:40:02;;;;;;;;;;;20.80;59.70;;;;;;5111387;28;20002;-72
2022/05/23 14:42:28;;;;;;;;;;;20.80;59.70;;;;;;5111458;28;20332;-73
2022/05/23 14:45:03;;;;;;;;;;;20.80;59.60;;;;;;5108214;28;20340;-73
2022/05/23 14:47:29;;;;;;;;;;;20.70;60.00;;;;;;5084521;28;20334;-73
2022/05/23 14:49:58;;;;;;;;;;;20.60;60.00;;;;;;5099006;28;19922;-73
2022/05/23 14:52:32;;;;;;;;;;;20.70;60.10;;;;;;5079576;28;19912;-75
2022/05/23 15:00:38;;;;;;;;;;;20.20;60.00;;;;;;5099899;28;19962;-73
2022/05/23 15:03:07;;;;;;;;;;;20.00;60.20;;;;;;5101470;28;20241;-74
2022/05/23 15:05:32;;;;;;;;;;;19.90;60.40;;;;;;5101258;28;19962;-75
2022/05/23 15:07:59;;;;;;;;;;;20.00;60.10;;;;;;5100581;28;20342;-75
2022/05/23 15:10:24;;;;;;;;;;;20.00;59.80;;;;;;5097614;28;19915;-72
2022/05/23 15:12:51;;;;;;;;;;;20.10;59.70;;;;;;5096441;28;20003;-73
2022/05/23 15:15:18;;;;;;;;;;;20.30;59.80;;;;;;5071505;28;20517;-72
2022/05/23 15:17:44;;;;;;;;;;;20.40;59.70;;;;;;5090336;28;20006;-72
2022/05/23 15:20:10;;;;;;;;;;;20.60;59.80;;;;;;5090307;28;20011;-72
2022/05/23 15:22:35;;;;;;;;;;;20.90;59.50;;;;;;5089924;28;19947;-72
2022/05/23 15:25:02;;;;;;;;;;;21.20;59.00;;;;;;5090066;28;20354;-72
2022/05/23 15:27:29;;;;;;;;;;;21.30;58.50;;;;;;5090127;28;19912;-72
2022/05/23 15:29:57;;;;;;;;;;;21.40;58.60;;;;;;5090247;28;19908;-72
2022/05/23 15:32:22;;;;;;;;;;;21.50;58.40;;;;;;5090010;28;20250;-72
2022/05/23 15:34:48;;;;;;;;;;;21.80;58.50;;;;;;5089890;28;19912;-73